Time;durP1;ratioP1;P1;durP2;ratioP2;P2;SDS_P1;SDS_P2;PMS_P1;PMS_P2;Temp;Humidity;BMP_temperature;BMP_pressure;BME280_temperature;BME280_humidity;BME280_pressure;Samples;Min_cycle;Max_cycle;Signal;HPM_P1;HPM_P2
2021/06/18 00:01:03;;;;;;;13.63;2.97;;;48.20;13.50;;;;;;5027025;28;20021;-68
2021/06/18 00:03:30;;;;;;;14.40;2.78;;;48.30;14.40;;;;;;5040503;28;20138;-69
2021/06/18 00:05:56;;;;;;;13.27;2.63;;;48.30;14.40;;;;;;5006505;28;20454;-68
2021/06/18 00:08:23;;;;;;;13.82;2.90;;;48.30;13.50;;;;;;5043602;28;20071;-68
2021/06/18 00:10:50;;;;;;;13.35;2.90;;;48.30;13.90;;;;;;5038478;28;20505;-68
2021/06/18 00:13:16;;;;;;;17.73;2.90;;;48.30;15.70;;;;;;5039104;28;20052;-70
2021/06/18 00:15:43;;;;;;;15.95;3.40;;;48.20;14.70;;;;;;5038335;28;20072;-69
2021/06/18 00:18:09;;;;;;;12.15;2.92;;;48.00;14.40;;;;;;5044868;28;20079;-69
2021/06/18 00:20:36;;;;;;;12.82;3.40;;;48.00;28.20;;;;;;5026723;28;20422;-69
2021/06/18 00:23:03;;;;;;;13.35;3.50;;;47.80;22.80;;;;;;5019889;28;20022;-69
2021/06/18 00:25:29;;;;;;;21.70;3.80;;;48.10;21.60;;;;;;5038839;28;20013;-68
2021/06/18 00:27:56;;;;;;;24.15;3.33;;;47.80;15.40;;;;;;5040377;28;20066;-69
2021/06/18 00:30:24;;;;;;;14.77;2.67;;;47.80;16.00;;;;;;5041490;28;20057;-69
2021/06/18 00:32:51;;;;;;;10.85;3.00;;;47.50;16.70;;;;;;5038233;28;20584;-68
2021/06/18 00:35:17;;;;;;;11.35;2.75;;;47.80;15.40;;;;;;5039386;28;20066;-69
2021/06/18 00:37:44;;;;;;;12.43;3.45;;;47.50;14.60;;;;;;5037196;28;20063;-70
2021/06/18 00:40:11;;;;;;;16.13;3.30;;;47.50;15.20;;;;;;5026095;28;20067;-69
2021/06/18 00:42:37;;;;;;;12.85;3.40;;;47.40;15.30;;;;;;5022481;28;20063;-69
2021/06/18 00:45:05;;;;;;;14.48;3.58;;;47.40;15.20;;;;;;5041848;28;20056;-70
2021/06/18 00:47:32;;;;;;;19.25;3.63;;;47.40;15.50;;;;;;5034401;28;20060;-70
2021/06/18 00:49:59;;;;;;;12.27;3.40;;;47.40;15.60;;;;;;5037492;28;20121;-70
2021/06/18 00:52:25;;;;;;;17.13;3.47;;;47.20;15.10;;;;;;5019713;28;20163;-69
2021/06/18 00:54:53;;;;;;;19.52;4.05;;;47.20;14.60;;;;;;5021082;28;20094;-69
2021/06/18 00:57:20;;;;;;;17.42;3.30;;;47.20;15.80;;;;;;5043926;28;20076;-68
2021/06/18 00:59:46;;;;;;;19.15;3.45;;;47.10;14.90;;;;;;5042075;28;20060;-69
2021/06/18 01:02:14;;;;;;;15.20;3.53;;;46.90;14.80;;;;;;5042330;28;20060;-67
2021/06/18 01:04:41;;;;;;;18.00;3.08;;;46.90;14.80;;;;;;5042989;28;20059;-68
2021/06/18 01:07:10;;;;;;;12.88;2.85;;;46.70;14.50;;;;;;5026167;28;20118;-68
2021/06/18 01:10:11;;;;;;;18.10;3.63;;;46.70;14.80;;;;;;5041061;28;20413;-69
2021/06/18 01:13:08;;;;;;;11.60;2.78;;;46.60;14.70;;;;;;5015270;28;20075;-70
2021/06/18 01:15:58;;;;;;;24.30;4.00;;;46.60;14.60;;;;;;5031554;28;20091;-68
2021/06/18 01:18:35;;;;;;;22.88;3.53;;;46.50;14.00;;;;;;5041919;28;20069;-69
2021/06/18 01:21:27;;;;;;;10.35;2.78;;;46.50;14.50;;;;;;5023044;28;20534;-68
2021/06/18 01:24:22;;;;;;;11.30;2.75;;;46.40;14.00;;;;;;5032141;28;20079;-69
2021/06/18 01:27:15;;;;;;;10.02;2.83;;;46.30;14.40;;;;;;5023581;28;20416;-68
2021/06/18 01:29:57;;;;;;;11.93;2.72;;;46.30;14.20;;;;;;5041295;28;20067;-72
2021/06/18 01:32:33;;;;;;;9.05;2.63;;;46.30;14.50;;;;;;5039031;28;20523;-71
2021/06/18 01:35:01;;;;;;;13.88;2.78;;;46.10;14.20;;;;;;5042754;28;20105;-72
2021/06/18 01:37:30;;;;;;;17.80;2.63;;;46.00;14.10;;;;;;5037510;28;20181;-69
2021/06/18 01:40:03;;;;;;;9.90;2.42;;;45.80;14.60;;;;;;5054566;28;20066;-71
2021/06/18 01:42:35;;;;;;;12.85;3.60;;;45.70;14.30;;;;;;5055532;28;20088;-70
2021/06/18 01:45:18;;;;;;;17.45;3.40;;;45.60;14.80;;;;;;5058970;28;20089;-73
2021/06/18 01:47:47;;;;;;;20.80;3.17;;;45.40;15.10;;;;;;5035119;28;20157;-73
2021/06/18 01:50:17;;;;;;;28.00;3.00;;;45.40;15.50;;;;;;5069187;22;20199;-69
2021/06/18 01:52:49;;;;;;;13.70;3.00;;;45.30;16.20;;;;;;5077316;28;20214;-68
2021/06/18 01:55:19;;;;;;;18.90;3.10;;;45.20;16.40;;;;;;5062114;28;20423;-69
2021/06/18 01:57:48;;;;;;;18.25;3.47;;;45.10;16.50;;;;;;5064470;28;20348;-69
2021/06/18 02:00:15;;;;;;;18.70;3.30;;;45.00;17.10;;;;;;5079160;28;20073;-69
2021/06/18 02:02:44;;;;;;;18.27;3.25;;;45.00;17.90;;;;;;5070116;28;20077;-71
2021/06/18 02:05:16;;;;;;;28.00;4.53;;;44.90;17.90;;;;;;5078137;28;20069;-69
2021/06/18 02:07:44;;;;;;;17.77;4.10;;;44.70;17.80;;;;;;5058589;28;20075;-69
2021/06/18 02:10:12;;;;;;;23.63;4.22;;;44.70;18.00;;;;;;5057493;28;20521;-68
2021/06/18 02:12:40;;;;;;;22.05;10.63;;;44.50;17.80;;;;;;5069170;28;20084;-70
2021/06/18 02:15:08;;;;;;;19.05;4.82;;;44.40;18.00;;;;;;5077187;28;20080;-69
2021/06/18 02:17:40;;;;;;;14.82;4.93;;;44.40;18.20;;;;;;5077010;28;20073;-68
2021/06/18 02:20:08;;;;;;;20.00;6.00;;;44.30;18.40;;;;;;5060077;28;20073;-72
2021/06/18 02:22:37;;;;;;;23.58;3.85;;;44.20;18.30;;;;;;5077600;28;20074;-68
2021/06/18 02:25:06;;;;;;;18.58;3.50;;;44.00;18.10;;;;;;5073236;28;20115;-67
2021/06/18 02:27:34;;;;;;;13.80;3.17;;;43.90;18.30;;;;;;5076343;28;20111;-66
2021/06/18 02:30:03;;;;;;;17.35;3.13;;;43.70;18.30;;;;;;5070310;28;20081;-67
2021/06/18 02:32:33;;;;;;;16.58;2.90;;;43.50;18.10;;;;;;5077522;28;20076;-68
2021/06/18 02:35:08;;;;;;;15.40;2.90;;;43.40;18.50;;;;;;5076263;28;20092;-67
2021/06/18 02:37:35;;;;;;;;;;;43.30;18.30;;;;;;5059977;28;20104;-65
2021/06/18 02:40:03;;;;;;;23.33;4.40;;;43.20;18.20;;;;;;5077680;28;19963;-68
2021/06/18 02:42:30;;;;;;;17.75;3.28;;;43.10;18.40;;;;;;5059216;28;20069;-68
2021/06/18 02:44:56;;;;;;;18.58;3.13;;;43.00;18.50;;;;;;5058355;28;20073;-66
2021/06/18 02:47:52;;;;;;;15.82;2.58;;;42.80;18.70;;;;;;5070582;28;20083;-67
2021/06/18 02:50:24;;;;;;;10.50;2.70;;;42.80;18.60;;;;;;5056837;28;20136;-67
2021/06/18 02:53:31;;;;;;;30.35;4.13;;;42.70;18.90;;;;;;5077275;28;20150;-67
2021/06/18 02:56:05;;;;;;;25.75;3.30;;;42.50;23.10;;;;;;5029856;28;20100;-70
2021/06/18 02:58:40;;;;;;;22.38;2.88;;;42.50;18.30;;;;;;5068852;28;20351;-70
2021/06/18 03:01:07;;;;;;;19.93;2.80;;;44.20;23.40;;;;;;5057903;28;20036;-68
2021/06/18 03:03:42;;;;;;;18.50;3.00;;;42.20;27.50;;;;;;5058985;28;20065;-67
2021/06/18 03:06:10;;;;;;;18.60;3.47;;;42.40;19.20;;;;;;5040419;28;20077;-65
2021/06/18 03:08:45;;;;;;;22.98;3.35;;;42.30;18.80;;;;;;5055746;28;20078;-67
2021/06/18 03:11:13;;;;;;;24.42;3.30;;;42.20;19.10;;;;;;5073035;28;20457;-68
2021/06/18 03:13:49;;;;;;;18.13;3.13;;;42.20;19.30;;;;;;5053721;28;20069;-69
2021/06/18 03:16:16;;;;;;;16.35;2.97;;;42.20;19.10;;;;;;5041847;28;20101;-69
2021/06/18 03:18:45;;;;;;;25.17;3.40;;;42.10;18.90;;;;;;5056963;28;20077;-70
2021/06/18 03:21:13;;;;;;;21.05;3.85;;;42.00;19.40;;;;;;5057050;28;20069;-67
2021/06/18 03:23:42;;;;;;;19.00;2.97;;;41.90;19.00;;;;;;5058440;28;20192;-67
2021/06/18 03:26:09;;;;;;;15.25;2.78;;;41.90;19.20;;;;;;5041478;28;20073;-67
2021/06/18 03:28:37;;;;;;;11.73;3.40;;;41.80;18.70;;;;;;5075727;28;20157;-68
2021/06/18 03:31:07;;;;;;;25.02;3.47;;;41.70;18.70;;;;;;5057615;28;20077;-70
2021/06/18 03:33:35;;;;;;;18.63;4.57;;;41.70;18.30;;;;;;5058228;28;20073;-67
2021/06/18 03:36:02;;;;;;;21.48;3.70;;;41.60;17.80;;;;;;5056384;28;20093;-68
2021/06/18 03:38:29;;;;;;;18.40;3.45;;;41.60;17.50;;;;;;5058538;28;20076;-69
2021/06/18 03:40:56;;;;;;;17.20;4.10;;;41.50;16.90;;;;;;5075557;28;20446;-66
2021/06/18 03:43:23;;;;;;;17.67;3.60;;;41.50;16.70;;;;;;5073826;28;20602;-68
2021/06/18 03:45:55;;;;;;;21.75;3.63;;;41.40;16.20;;;;;;5058553;22;20167;-69
2021/06/18 03:48:22;;;;;;;16.75;4.10;;;41.40;16.50;;;;;;5050451;28;20069;-71
2021/06/18 03:50:48;;;;;;;16.70;3.70;;;41.30;16.60;;;;;;5090554;22;21701;-71
2021/06/18 03:53:16;;;;;;;12.32;3.60;;;41.20;16.70;;;;;;5057342;23;20110;-69
2021/06/18 03:55:47;;;;;;;14.25;3.80;;;41.10;16.90;;;;;;5066509;22;20204;-70
2021/06/18 03:58:16;;;;;;;25.30;4.00;;;41.00;16.40;;;;;;5047282;28;20135;-71
2021/06/18 04:00:46;;;;;;;23.65;4.30;;;41.00;16.20;;;;;;5047017;28;20081;-71
2021/06/18 04:03:13;;;;;;;20.92;3.63;;;41.00;16.40;;;;;;5066240;28;20082;-71
2021/06/18 04:05:43;;;;;;;25.20;3.65;;;40.90;16.40;;;;;;5065481;28;20070;-72
2021/06/18 04:08:12;;;;;;;16.25;3.15;;;40.80;16.70;;;;;;5087408;22;20126;-71
2021/06/18 04:10:40;;;;;;;24.58;4.20;;;40.70;17.20;;;;;;5111858;28;20561;-70
2021/06/18 04:13:08;;;;;;;20.30;4.15;;;40.60;17.50;;;;;;5090842;28;20533;-71
2021/06/18 04:15:35;;;;;;;36.85;4.68;;;40.50;18.10;;;;;;5107436;28;20106;-69
2021/06/18 04:18:03;;;;;;;32.60;4.47;;;40.40;18.50;;;;;;5089652;28;20607;-70
2021/06/18 04:20:30;;;;;;;24.13;4.50;;;40.30;19.00;;;;;;5094273;28;20087;-71
2021/06/18 04:22:57;;;;;;;19.77;4.70;;;40.10;19.30;;;;;;5067328;22;20121;-69
2021/06/18 04:25:24;;;;;;;25.13;4.65;;;40.00;18.90;;;;;;5066820;28;20061;-71
2021/06/18 04:27:51;;;;;;;31.02;4.97;;;39.90;18.70;;;;;;5048008;28;20078;-71
2021/06/18 04:30:18;;;;;;;29.77;4.45;;;39.90;18.60;;;;;;5067127;28;20076;-70
2021/06/18 04:32:47;;;;;;;30.02;4.40;;;39.80;18.60;;;;;;5066980;28;20081;-71
2021/06/18 04:35:14;;;;;;;38.40;5.65;;;39.70;18.80;;;;;;5067737;28;20138;-70
2021/06/18 04:37:42;;;;;;;36.75;5.75;;;39.70;18.60;;;;;;5065632;28;20084;-70
2021/06/18 04:40:10;;;;;;;50.75;5.35;;;39.70;18.20;;;;;;5065942;28;20072;-69
2021/06/18 04:42:37;;;;;;;39.40;5.15;;;39.70;17.50;;;;;;5047106;28;20073;-69
2021/06/18 04:45:05;;;;;;;50.72;6.03;;;39.70;17.40;;;;;;5064534;28;20145;-72
2021/06/18 04:47:32;;;;;;;51.78;6.25;;;39.70;17.10;;;;;;5055822;22;20109;-70
2021/06/18 04:49:59;;;;;;;54.65;6.60;;;39.70;17.00;;;;;;5049256;28;20529;-70
2021/06/18 04:52:25;;;;;;;38.22;5.68;;;39.80;16.70;;;;;;5050803;28;20143;-70
2021/06/18 04:54:56;;;;;;;46.95;5.55;;;39.80;16.50;;;;;;5047966;28;20088;-70
2021/06/18 04:57:23;;;;;;;40.90;6.47;;;39.80;16.50;;;;;;5046585;28;20093;-71
2021/06/18 04:59:49;;;;;;;66.55;6.80;;;39.80;16.40;;;;;;5049922;28;20112;-69
2021/06/18 05:02:16;;;;;;;60.28;6.53;;;39.80;16.20;;;;;;5051220;28;20093;-69
2021/06/18 05:04:42;;;;;;;60.15;5.60;;;39.80;16.40;;;;;;5046746;28;20531;-71
2021/06/18 05:07:09;;;;;;;55.67;8.35;;;39.80;16.20;;;;;;5048786;28;20077;-70
2021/06/18 05:09:36;;;;;;;48.38;6.20;;;39.80;16.30;;;;;;5048586;28;20082;-71
2021/06/18 05:12:02;;;;;;;36.97;5.65;;;39.80;16.50;;;;;;5049413;28;20073;-69
2021/06/18 05:14:30;;;;;;;42.55;5.25;;;39.80;16.20;;;;;;5048708;28;20131;-70
2021/06/18 05:16:57;;;;;;;40.45;4.78;;;39.80;15.80;;;;;;5047117;28;20090;-70
2021/06/18 05:19:23;;;;;;;52.03;5.65;;;39.80;15.70;;;;;;5043354;28;20128;-69
2021/06/18 05:21:50;;;;;;;38.30;5.88;;;39.80;15.40;;;;;;5049823;28;20069;-71
2021/06/18 05:24:16;;;;;;;26.70;4.75;;;39.80;15.60;;;;;;5049992;28;20523;-70
2021/06/18 05:26:43;;;;;;;44.40;5.13;;;39.80;15.90;;;;;;5050245;28;20085;-70
2021/06/18 05:29:09;;;;;;;34.88;5.15;;;39.80;16.20;;;;;;5053671;28;20078;-69
2021/06/18 05:31:36;;;;;;;30.20;4.95;;;39.80;16.30;;;;;;5050173;28;20092;-69
2021/06/18 05:34:02;;;;;;;30.70;5.32;;;39.70;15.80;;;;;;5051185;28;20111;-71
2021/06/18 05:36:29;;;;;;;36.03;5.78;;;39.70;15.80;;;;;;5065165;22;20116;-70
2021/06/18 05:38:55;;;;;;;26.33;4.82;;;39.70;16.00;;;;;;5089140;28;20084;-69
2021/06/18 05:41:22;;;;;;;28.00;4.53;;;39.60;16.30;;;;;;5073469;28;20450;-71
2021/06/18 05:43:49;;;;;;;18.77;3.53;;;39.50;16.60;;;;;;5094274;28;20429;-73
2021/06/18 05:46:15;;;;;;;15.18;3.05;;;39.40;16.50;;;;;;5092473;28;20130;-69
2021/06/18 05:48:42;;;;;;;14.30;3.05;;;39.30;16.20;;;;;;5096849;28;20073;-71
2021/06/18 05:51:08;;;;;;;20.73;2.88;;;39.30;16.20;;;;;;5094299;28;20073;-70
2021/06/18 05:53:35;;;;;;;10.82;2.30;;;39.20;16.20;;;;;;5094428;28;20080;-71
2021/06/18 05:56:02;;;;;;;15.82;2.67;;;39.10;16.10;;;;;;5073998;28;20442;-70
2021/06/18 05:58:29;;;;;;;21.88;2.70;;;39.10;16.20;;;;;;5095380;28;20149;-70
2021/06/18 06:00:55;;;;;;;15.02;4.28;;;39.00;16.30;;;;;;5089090;28;20126;-69
2021/06/18 06:03:22;;;;;;;13.80;4.38;;;38.90;16.20;;;;;;5091308;28;20156;-70
2021/06/18 06:05:50;;;;;;;10.30;4.40;;;38.80;16.20;;;;;;5092414;28;20104;-71
2021/06/18 06:08:17;;;;;;;15.30;5.50;;;38.80;16.40;;;;;;5094815;28;20437;-71
2021/06/18 06:10:46;;;;;;;13.23;5.00;;;38.70;16.40;;;;;;5091114;28;20102;-69
2021/06/18 06:13:13;;;;;;;14.20;4.88;;;38.80;16.40;;;;;;5076900;28;20597;-70
2021/06/18 06:15:39;;;;;;;10.88;4.50;;;38.70;16.50;;;;;;5071523;28;20097;-70
2021/06/18 06:18:06;;;;;;;16.77;4.13;;;38.60;16.50;;;;;;5095006;28;20126;-70
2021/06/18 06:20:33;;;;;;;9.32;2.45;;;38.60;16.60;;;;;;5093268;28;20099;-71
2021/06/18 06:22:59;;;;;;;6.88;2.78;;;38.60;16.30;;;;;;5093711;28;20069;-70
2021/06/18 06:25:26;;;;;;;12.90;3.10;;;38.60;16.50;;;;;;5093701;28;20072;-70
2021/06/18 06:27:52;;;;;;;9.65;3.50;;;38.50;16.70;;;;;;5093518;28;20076;-70
2021/06/18 06:30:19;;;;;;;12.40;3.17;;;38.50;16.90;;;;;;5077226;28;20069;-70
2021/06/18 06:32:46;;;;;;;9.30;2.75;;;38.30;16.70;;;;;;5073520;28;20083;-71
2021/06/18 06:35:12;;;;;;;17.73;7.80;;;38.30;16.80;;;;;;5071797;28;20502;-72
2021/06/18 06:37:39;;;;;;;19.92;7.57;;;38.30;16.80;;;;;;5093291;28;20112;-68
2021/06/18 06:40:07;;;;;;;13.50;3.33;;;38.30;16.80;;;;;;5080245;28;20100;-73
2021/06/18 06:42:34;;;;;;;8.95;3.10;;;38.30;16.80;;;;;;5104108;22;20108;-71
2021/06/18 06:45:02;;;;;;;20.05;4.07;;;38.30;17.10;;;;;;5107163;22;20105;31
2021/06/18 06:47:28;;;;;;;9.90;2.80;;;38.30;17.30;;;;;;5050650;28;20101;-68
2021/06/18 06:49:55;;;;;;;22.00;3.50;;;38.20;17.30;;;;;;5045360;28;20070;-66
2021/06/18 06:52:21;;;;;;;19.08;3.25;;;38.10;17.40;;;;;;5054694;28;20070;-69
2021/06/18 06:54:48;;;;;;;14.15;2.67;;;38.10;17.50;;;;;;5054535;28;20074;-66
2021/06/18 06:57:16;;;;;;;16.05;2.90;;;38.00;17.60;;;;;;5038446;28;20097;-68
2021/06/18 06:59:43;;;;;;;8.10;2.15;;;37.90;17.60;;;;;;5054294;28;20611;-66
2021/06/18 07:02:10;;;;;;;7.13;2.50;;;37.90;17.50;;;;;;5053467;28;20140;-67
2021/06/18 07:04:36;;;;;;;6.88;2.30;;;37.80;17.70;;;;;;5052803;28;20443;-67
2021/06/18 07:07:04;;;;;;;8.32;2.33;;;37.80;17.90;;;;;;5054045;28;20081;-68
2021/06/18 07:09:38;;;;;;;7.80;2.30;;;37.70;17.90;;;;;;5053623;28;20074;-67
2021/06/18 07:12:09;;;;;;;6.72;1.80;;;37.70;18.00;;;;;;5052963;28;20077;-67
2021/06/18 07:14:38;;;;;;;9.40;2.33;;;37.60;18.10;;;;;;5053366;28;20074;-68
2021/06/18 07:17:05;;;;;;;8.55;2.20;;;37.60;18.60;;;;;;5053836;28;20154;-65
2021/06/18 07:19:32;;;;;;;8.20;2.10;;;37.50;19.00;;;;;;5053429;28;20544;-67
2021/06/18 07:21:59;;;;;;;10.63;2.40;;;37.40;18.70;;;;;;5052344;28;20104;-66
2021/06/18 07:24:26;;;;;;;9.52;1.88;;;37.20;18.90;;;;;;5051126;28;20076;-68
2021/06/18 07:26:53;;;;;;;11.02;2.20;;;37.10;19.10;;;;;;5035181;28;20081;-68
2021/06/18 07:29:20;;;;;;;8.75;2.03;;;37.10;19.40;;;;;;5053550;28;20080;-66
2021/06/18 07:31:47;;;;;;;11.85;2.30;;;37.00;19.60;;;;;;5052915;28;20108;-66
2021/06/18 07:34:13;;;;;;;16.63;2.60;;;36.90;19.40;;;;;;5051806;28;20073;-66
2021/06/18 07:36:40;;;;;;;8.30;2.47;;;36.90;19.30;;;;;;5035405;28;20223;-67
2021/06/18 07:39:08;;;;;;;10.82;2.47;;;36.80;19.20;;;;;;5051668;28;20155;-67
2021/06/18 07:41:37;;;;;;;13.68;3.30;;;36.80;19.50;;;;;;5053053;28;20164;-68
2021/06/18 07:44:08;;;;;;;27.88;5.40;;;36.70;19.60;;;;;;5051427;28;20073;-67
2021/06/18 07:46:35;;;;;;;24.63;6.90;;;36.50;22.00;;;;;;5050738;28;20109;-66
2021/06/18 07:49:01;;;;;;;34.33;10.43;;;36.50;24.90;;;;;;5052277;28;20077;-66
2021/06/18 07:51:28;;;;;;;30.17;13.02;;;36.40;27.70;;;;;;5052637;28;20073;-68
2021/06/18 07:53:54;;;;;;;35.67;14.40;;;36.10;30.10;;;;;;5052297;28;20124;-68
2021/06/18 07:56:24;;;;;;;32.90;14.98;;;35.90;31.90;;;;;;5034437;28;20093;-66
2021/06/18 07:58:52;;;;;;;36.40;16.40;;;35.80;32.50;;;;;;5034889;28;20081;-68
2021/06/18 08:01:19;;;;;;;35.88;15.30;;;35.70;33.40;;;;;;5051176;28;20127;-66
2021/06/18 08:03:46;;;;;;;30.25;13.43;;;35.60;34.00;;;;;;5051290;28;20096;-63
2021/06/18 08:06:13;;;;;;;35.08;13.32;;;35.50;34.80;;;;;;5052275;28;20524;-67
2021/06/18 08:08:40;;;;;;;26.88;11.65;;;35.40;34.70;;;;;;5052389;28;20577;-66
2021/06/18 08:11:07;;;;;;;34.78;11.70;;;35.30;34.90;;;;;;5053239;28;20120;-66
2021/06/18 08:13:34;;;;;;;23.10;9.85;;;35.30;35.00;;;;;;5052461;28;20085;-67
2021/06/18 08:16:01;;;;;;;25.92;9.68;;;35.20;35.20;;;;;;5051335;28;20101;-66
2021/06/18 08:18:27;;;;;;;25.33;9.43;;;35.20;35.20;;;;;;5052766;28;20070;-67
2021/06/18 08:20:54;;;;;;;24.83;9.63;;;35.20;35.50;;;;;;5052057;28;20106;-67
2021/06/18 08:23:20;;;;;;;30.60;10.43;;;35.10;35.60;;;;;;5052487;28;20073;-65
2021/06/18 08:25:50;;;;;;;26.08;8.40;;;34.90;36.10;;;;;;5051478;28;20065;-66
2021/06/18 08:28:18;;;;;;;22.88;7.88;;;34.80;36.30;;;;;;5051531;28;20089;-65
2021/06/18 08:30:44;;;;;;;21.00;7.95;;;34.70;36.70;;;;;;5052148;28;20088;-70
2021/06/18 08:33:11;;;;;;;23.90;8.00;;;34.70;37.20;;;;;;5052890;28;20085;-71
2021/06/18 08:35:38;;;;;;;27.13;7.63;;;34.80;37.30;;;;;;5051818;28;20417;-69
2021/06/18 08:38:05;;;;;;;25.17;7.50;;;34.90;37.50;;;;;;5050771;28;20088;-72
2021/06/18 08:40:34;;;;;;;24.35;7.57;;;34.90;37.50;;;;;;5051254;28;20077;-70
2021/06/18 08:43:02;;;;;;;19.33;7.85;;;34.90;37.40;;;;;;5052770;28;20095;-69
2021/06/18 08:45:29;;;;;;;24.83;8.40;;;34.90;37.70;;;;;;5029986;28;20114;-70
2021/06/18 08:47:56;;;;;;;25.33;8.93;;;34.70;38.10;;;;;;5046475;22;20201;-71
2021/06/18 08:50:23;;;;;;;28.92;9.02;;;34.70;38.40;;;;;;5036431;28;20084;-68
2021/06/18 08:52:58;;;;;;;25.65;9.60;;;34.70;38.70;;;;;;5031609;28;20073;-69
2021/06/18 08:55:27;;;;;;;24.38;9.07;;;34.80;38.70;;;;;;5036518;28;20073;-70
2021/06/18 08:58:03;;;;;;;28.08;9.35;;;34.80;38.60;;;;;;5037961;28;20074;-72
2021/06/18 09:00:31;;;;;;;28.13;9.73;;;34.70;38.90;;;;;;5049089;28;20069;-71
2021/06/18 09:02:59;;;;;;;21.58;8.32;;;34.60;39.10;;;;;;5046813;28;20085;-68
2021/06/18 09:05:25;;;;;;;22.80;8.63;;;34.60;39.20;;;;;;5036987;28;20610;-69
2021/06/18 09:07:55;;;;;;;16.88;8.18;;;34.60;39.30;;;;;;5018708;28;20155;-71
2021/06/18 09:10:23;;;;;;;22.90;8.50;;;34.40;39.20;;;;;;5038681;28;20073;-72
2021/06/18 09:13:12;;;;;;;21.55;10.15;;;34.20;39.60;;;;;;5038539;28;20549;-70
2021/06/18 09:15:42;;;;;;;25.17;8.50;;;34.10;39.70;;;;;;5048692;28;20082;-69
2021/06/18 09:18:37;;;;;;;17.20;6.10;;;34.00;40.00;;;;;;5034149;28;20070;-72
2021/06/18 09:21:03;;;;;;;13.02;5.10;;;34.10;39.70;;;;;;5035559;28;20085;-72
2021/06/18 09:23:33;;;;;;;17.00;4.90;;;34.10;39.60;;;;;;5047318;28;20105;-71
2021/06/18 09:26:20;;;;;;;19.83;5.60;;;34.00;39.70;;;;;;5033024;28;20106;-69
2021/06/18 09:29:04;;;;;;;;;;;33.90;39.60;;;;;;5031488;28;20077;-70
2021/06/18 09:31:35;;;;;;;19.15;5.00;;;33.80;40.40;;;;;;5035509;28;19961;-70
2021/06/18 09:34:03;;;;;;;15.98;4.55;;;33.80;39.80;;;;;;5049359;28;20081;-72
2021/06/18 09:36:31;;;;;;;16.25;4.43;;;33.80;39.60;;;;;;5018508;28;20129;-69
2021/06/18 09:38:59;;;;;;;14.88;5.00;;;33.80;39.50;;;;;;5036201;28;20481;-70
2021/06/18 09:41:46;;;;;;;13.43;5.00;;;33.80;39.20;;;;;;5044018;28;20547;-68
2021/06/18 09:44:19;;;;;;;14.00;4.55;;;33.80;38.90;;;;;;5052197;28;20165;-69
2021/06/18 09:46:58;;;;;;;13.80;4.20;;;33.80;38.90;;;;;;5048500;22;20145;-69
2021/06/18 09:49:31;;;;;;;16.50;4.90;;;33.80;38.00;;;;;;5034439;28;20515;-71
2021/06/18 09:52:03;;;;;;;17.17;4.93;;;33.70;37.70;;;;;;5035193;28;20066;-71
2021/06/18 09:54:38;;;;;;;19.05;4.53;;;33.70;37.10;;;;;;5034651;28;20089;-69
2021/06/18 09:57:17;;;;;;;14.73;4.18;;;33.60;36.60;;;;;;5034492;28;20168;-69
2021/06/18 09:59:58;;;;;;;14.93;4.22;;;33.70;36.40;;;;;;5036073;28;20073;-68
2021/06/18 10:02:45;;;;;;;13.77;4.07;;;33.70;35.80;;;;;;5034682;28;20100;-69
2021/06/18 10:05:20;;;;;;;17.20;3.90;;;33.70;35.60;;;;;;5033489;28;20081;-68
2021/06/18 10:07:52;;;;;;;12.63;4.00;;;33.70;35.30;;;;;;5045172;22;20267;-71
2021/06/18 10:10:28;;;;;;;18.65;4.15;;;33.70;35.30;;;;;;5029135;28;20082;-69
2021/06/18 10:12:56;;;;;;;11.43;4.13;;;33.60;35.20;;;;;;5037603;28;20080;-71
2021/06/18 10:15:27;;;;;;;20.50;4.13;;;33.60;35.20;;;;;;5065944;22;20132;-70
2021/06/18 10:17:56;;;;;;;12.50;4.55;;;33.60;35.20;;;;;;5068569;28;20530;-70
2021/06/18 10:20:28;;;;;;;15.88;4.38;;;33.40;35.20;;;;;;5072151;22;20077;-70
2021/06/18 10:23:10;;;;;;;13.98;4.38;;;33.40;35.30;;;;;;5058541;28;20083;-70
2021/06/18 10:25:45;;;;;;;15.75;4.40;;;33.40;35.50;;;;;;5068761;28;20103;-69
2021/06/18 10:28:22;;;;;;;17.55;4.45;;;33.40;35.60;;;;;;5054362;28;20081;-70
2021/06/18 10:30:51;;;;;;;18.98;4.10;;;33.40;35.80;;;;;;5049247;28;20075;-70
2021/06/18 10:33:27;;;;;;;15.25;4.60;;;33.40;36.00;;;;;;5053987;28;20073;-70
2021/06/18 10:36:08;;;;;;;18.13;4.30;;;33.30;36.20;;;;;;5069592;28;20085;-70
2021/06/18 10:38:36;;;;;;;16.23;4.97;;;33.30;36.40;;;;;;5057120;28;20476;-69
2021/06/18 10:41:18;;;;;;;18.17;4.65;;;33.20;36.40;;;;;;5061795;28;20077;-71
2021/06/18 10:43:50;;;;;;;18.08;5.18;;;33.00;36.70;;;;;;5058488;28;20077;-70
2021/06/18 10:46:18;;;;;;;17.17;4.97;;;33.10;36.80;;;;;;5056212;28;20087;-71
2021/06/18 10:48:47;;;;;;;21.27;5.40;;;33.10;36.80;;;;;;5071132;28;20077;-70
2021/06/18 10:51:35;;;;;;;22.77;5.57;;;33.00;36.70;;;;;;5074591;28;20108;-68
2021/06/18 10:54:15;;;;;;;25.15;5.88;;;33.00;36.80;;;;;;5054616;28;20171;-69
2021/06/18 10:56:47;;;;;;;24.65;5.90;;;33.00;36.80;;;;;;5070880;28;20097;-69
2021/06/18 10:59:26;;;;;;;19.13;5.32;;;32.90;36.80;;;;;;5054471;28;20432;-69
2021/06/18 11:01:53;;;;;;;24.83;6.95;;;32.90;36.80;;;;;;5061541;28;20441;-71
2021/06/18 11:04:43;;;;;;;18.90;6.15;;;32.80;36.80;;;;;;5066542;28;20077;-72
2021/06/18 11:07:33;;;;;;;22.63;7.38;;;32.80;36.90;;;;;;5065620;28;20100;-69
2021/06/18 11:10:06;;;;;;;22.30;7.40;;;32.70;36.80;;;;;;5051894;28;20101;-70
2021/06/18 11:12:48;;;;;;;20.50;7.30;;;32.80;36.80;;;;;;5061146;28;20077;-70
2021/06/18 11:15:17;;;;;;;25.60;9.20;;;32.80;36.90;;;;;;5062402;22;20147;-69
2021/06/18 11:18:19;;;;;;;27.95;11.73;;;32.70;36.60;;;;;;5053214;28;20105;-70
2021/06/18 11:20:51;;;;;;;39.97;12.30;;;32.70;37.10;;;;;;5050448;28;20073;-70
2021/06/18 11:23:27;;;;;;;35.75;12.50;;;32.60;37.40;;;;;;5035480;28;20081;-69
2021/06/18 11:26:00;;;;;;;40.73;14.00;;;32.50;37.30;;;;;;5041366;28;20090;-70
2021/06/18 11:28:27;;;;;;;38.22;13.43;;;32.50;37.40;;;;;;5034364;28;20070;-70
2021/06/18 11:31:09;;;;;;;33.17;13.18;;;32.50;37.50;;;;;;5034210;28;20123;-69
2021/06/18 11:33:44;;;;;;;52.42;17.20;;;32.40;37.20;;;;;;5048757;28;20070;-70
2021/06/18 11:36:22;;;;;;;45.78;17.33;;;32.40;37.00;;;;;;5041114;28;20523;-70
2021/06/18 11:39:20;;;;;;;50.13;18.77;;;32.40;37.10;;;;;;5035907;28;20070;-70
2021/06/18 11:41:49;;;;;;;48.83;20.38;;;32.30;37.10;;;;;;5034308;28;20087;-70
2021/06/18 11:44:21;;;;;;;49.05;18.38;;;32.20;37.30;;;;;;5051856;28;20531;-69
2021/06/18 11:46:55;;;;;;;47.38;17.48;;;32.20;37.40;;;;;;5035911;28;20086;-69
2021/06/18 11:49:25;;;;;;;45.47;18.45;;;32.10;37.50;;;;;;5048520;28;20157;-70
2021/06/18 11:51:58;;;;;;;43.55;16.75;;;32.10;37.70;;;;;;5034953;28;20092;-71
2021/06/18 11:54:29;;;;;;;37.25;15.38;;;32.10;37.70;;;;;;5043446;28;20070;-69
2021/06/18 11:57:07;;;;;;;46.10;14.70;;;32.10;37.90;;;;;;5030728;28;20109;-70
2021/06/18 11:59:37;;;;;;;27.85;12.68;;;32.10;37.90;;;;;;5049974;28;20550;-70
2021/06/18 12:02:14;;;;;;;37.05;11.68;;;32.00;37.80;;;;;;5034420;28;20073;-69
2021/06/18 12:04:41;;;;;;;27.17;9.60;;;32.00;38.00;;;;;;5052317;28;20087;-71
2021/06/18 12:07:08;;;;;;;24.02;7.60;;;31.90;38.10;;;;;;5035396;28;20077;-69
2021/06/18 12:09:40;;;;;;;24.30;6.90;;;31.80;38.40;;;;;;5034323;28;20142;-70
2021/06/18 12:12:08;;;;;;;18.38;6.55;;;31.80;38.80;;;;;;5035926;28;20431;-68
2021/06/18 12:14:40;;;;;;;24.63;6.07;;;31.80;39.10;;;;;;5027172;28;20094;-71
2021/06/18 12:17:08;;;;;;;22.50;5.50;;;31.70;39.30;;;;;;5027216;28;20618;-71
2021/06/18 12:19:45;;;;;;;19.80;5.30;;;31.70;39.60;;;;;;5027264;28;20073;-70
2021/06/18 12:22:30;;;;;;;30.13;5.07;;;31.70;39.70;;;;;;5027125;28;20085;-69
2021/06/18 12:24:59;;;;;;;24.10;5.70;;;31.70;40.00;;;;;;5029713;28;20693;-70
2021/06/18 12:27:31;;;;;;;22.80;6.22;;;31.60;40.00;;;;;;5014722;28;20078;-69
2021/06/18 12:30:01;;;;;;;37.05;6.60;;;31.70;40.20;;;;;;5014958;28;20081;-71
2021/06/18 12:32:33;;;;;;;27.77;6.07;;;31.70;40.10;;;;;;5013694;28;20079;-68
2021/06/18 12:35:08;;;;;;;19.30;5.05;;;31.70;40.60;;;;;;5028991;28;20074;-70
2021/06/18 12:37:40;;;;;;;24.63;5.05;;;31.70;40.90;;;;;;5028651;28;20176;-71
2021/06/18 12:40:34;;;;;;;33.50;5.20;;;31.80;41.00;;;;;;5029989;28;20082;-71
2021/06/18 12:43:11;;;;;;;18.65;5.05;;;31.70;40.90;;;;;;5011548;28;20085;-70
2021/06/18 12:45:53;;;;;;;17.33;4.35;;;31.60;41.40;;;;;;5015695;28;20074;-70
2021/06/18 12:48:29;;;;;;;13.55;4.18;;;31.70;41.90;;;;;;5030550;28;20149;-68
2021/06/18 12:51:00;;;;;;;15.73;4.20;;;31.70;42.00;;;;;;5014383;28;20077;-68
2021/06/18 12:53:44;;;;;;;16.88;4.25;;;31.80;42.00;;;;;;5028735;28;20106;-69
2021/06/18 12:56:22;;;;;;;22.35;4.22;;;31.80;42.00;;;;;;5029663;28;20188;-70